createdAt,value
2017-10-20T00:00:49.770Z,30.53
2017-10-20T00:03:17.196Z,29.50
2017-10-20T00:05:44.617Z,29.80
2017-10-20T00:08:12.061Z,28.40
2017-10-20T00:10:39.485Z,27.50
2017-10-20T00:13:06.908Z,28.50
2017-10-20T00:15:34.353Z,25.87
2017-10-20T00:18:01.768Z,26.27
2017-10-20T00:20:29.197Z,28.20
2017-10-20T00:22:56.636Z,27.87
2017-10-20T00:25:24.053Z,27.30
2017-10-20T00:27:51.477Z,26.17
2017-10-20T00:30:18.917Z,29.23
2017-10-20T00:32:46.353Z,27.47
2017-10-20T00:35:13.773Z,30.17
2017-10-20T00:37:41.213Z,29.07
2017-10-20T00:40:08.637Z,28.70
2017-10-20T00:42:36.052Z,30.60
2017-10-20T00:45:03.500Z,30.53
2017-10-20T00:47:30.925Z,33.23
2017-10-20T00:49:58.344Z,32.73
2017-10-20T00:52:25.790Z,32.27
2017-10-20T00:54:53.217Z,32.40
2017-10-20T00:57:20.645Z,30.40
2017-10-20T00:59:48.080Z,31.87
2017-10-20T01:02:15.533Z,32.90
2017-10-20T01:04:42.937Z,33.77
2017-10-20T01:07:10.372Z,30.67
2017-10-20T01:09:37.793Z,32.63
2017-10-20T01:12:05.221Z,30.37
2017-10-20T01:14:32.661Z,33.50
2017-10-20T01:17:00.077Z,31.90
2017-10-20T01:19:27.501Z,32.00
2017-10-20T01:21:54.952Z,30.70
2017-10-20T01:24:22.373Z,30.97
2017-10-20T01:26:49.793Z,30.63
2017-10-20T01:29:17.238Z,31.10
2017-10-20T01:31:44.661Z,29.97
2017-10-20T01:34:12.076Z,31.20
2017-10-20T01:36:39.515Z,31.80
2017-10-20T01:39:06.959Z,30.50
2017-10-20T01:41:34.373Z,30.73
2017-10-20T01:44:01.818Z,30.43
2017-10-20T01:46:29.238Z,30.43
2017-10-20T01:48:56.656Z,30.13
2017-10-20T01:51:24.088Z,32.27
2017-10-20T01:53:51.513Z,30.93
2017-10-20T01:56:18.937Z,31.17
2017-10-20T01:58:49.369Z,30.67
2017-10-20T02:01:16.793Z,31.23
2017-10-20T02:03:44.217Z,30.93
2017-10-20T02:06:11.652Z,32.73
2017-10-20T02:08:39.077Z,33.30
2017-10-20T02:11:06.497Z,31.63
2017-10-20T02:13:33.938Z,30.27
2017-10-20T02:16:01.360Z,30.63
2017-10-20T02:18:28.781Z,29.47
2017-10-20T02:20:56.228Z,30.90
2017-10-20T02:23:23.648Z,32.97
2017-10-20T02:25:51.068Z,30.23
2017-10-20T02:28:18.533Z,30.17
2017-10-20T02:30:45.956Z,31.33
2017-10-20T02:33:13.385Z,30.37
2017-10-20T02:35:40.821Z,29.53
2017-10-20T02:38:08.245Z,29.00
2017-10-20T02:40:35.657Z,29.20
2017-10-20T02:43:03.093Z,30.20
2017-10-20T02:45:30.509Z,30.17
2017-10-20T02:47:57.933Z,30.07
2017-10-20T02:50:25.368Z,30.60
2017-10-20T02:52:52.788Z,31.07
2017-10-20T02:55:20.217Z,30.30
2017-10-20T02:57:47.657Z,28.93
2017-10-20T03:00:15.068Z,31.87
2017-10-20T03:02:42.504Z,29.30
2017-10-20T03:05:09.936Z,29.53
2017-10-20T03:07:37.360Z,30.13
2017-10-20T03:10:04.806Z,28.77
2017-10-20T03:12:32.226Z,30.20
2017-10-20T03:14:59.646Z,31.40
2017-10-20T03:17:27.080Z,30.57
2017-10-20T03:19:54.509Z,30.37
2017-10-20T03:22:21.940Z,30.50
2017-10-20T03:24:49.368Z,29.67
2017-10-20T03:27:16.792Z,30.10
2017-10-20T03:29:44.237Z,30.50
2017-10-20T03:32:11.657Z,28.57
2017-10-20T03:34:39.076Z,31.10
2017-10-20T03:37:06.520Z,31.17
2017-10-20T03:39:33.941Z,32.77
2017-10-20T03:42:01.360Z,34.17
2017-10-20T03:44:28.796Z,32.70
2017-10-20T03:46:56.216Z,32.30
2017-10-20T03:49:23.639Z,30.20
2017-10-20T03:51:51.085Z,30.53
2017-10-20T03:54:18.510Z,31.23
2017-10-20T03:56:45.929Z,30.60
2017-10-20T03:59:13.372Z,30.90
2017-10-20T04:01:40.793Z,30.73
2017-10-20T04:04:08.216Z,31.73
2017-10-20T04:06:35.661Z,29.93
2017-10-20T04:09:03.082Z,31.00
2017-10-20T04:11:30.495Z,30.40
2017-10-20T04:13:57.940Z,29.13
2017-10-20T04:16:25.368Z,29.37
2017-10-20T04:18:52.787Z,30.40
2017-10-20T04:21:20.236Z,32.33
2017-10-20T04:23:47.660Z,29.30
2017-10-20T04:26:15.080Z,31.27
2017-10-20T04:28:42.525Z,30.90
2017-10-20T04:31:09.948Z,28.77
2017-10-20T04:33:37.369Z,28.40
2017-10-20T04:36:04.808Z,29.33
2017-10-20T04:38:32.229Z,30.50
2017-10-20T04:40:59.653Z,27.60
2017-10-20T04:43:27.088Z,28.37
2017-10-20T04:45:54.509Z,28.00
2017-10-20T04:48:21.932Z,30.20
2017-10-20T04:50:49.368Z,30.07
2017-10-20T04:53:16.794Z,26.57
2017-10-20T04:55:44.208Z,27.30
2017-10-20T04:58:11.652Z,26.47
2017-10-20T05:00:39.081Z,25.93
2017-10-20T05:03:06.509Z,26.77
2017-10-20T05:05:33.940Z,27.23
2017-10-20T05:08:01.361Z,28.23
2017-10-20T05:10:28.809Z,25.60
2017-10-20T05:12:56.240Z,25.47
2017-10-20T05:15:23.661Z,25.67
2017-10-20T05:17:51.100Z,24.93
2017-10-20T05:20:18.521Z,24.27
2017-10-20T05:22:45.941Z,26.00
2017-10-20T05:25:13.381Z,26.73
2017-10-20T05:27:40.806Z,25.63
2017-10-20T05:30:08.227Z,25.90
2017-10-20T05:32:35.708Z,24.20
2017-10-20T05:35:03.128Z,23.13
2017-10-20T05:37:30.548Z,23.30
2017-10-20T05:39:57.994Z,24.33
2017-10-20T05:42:25.414Z,23.03
2017-10-20T05:44:52.836Z,22.90
2017-10-20T05:47:20.269Z,23.43
2017-10-20T05:49:47.697Z,22.47
2017-10-20T05:52:15.121Z,23.30
2017-10-20T05:54:42.560Z,23.33
2017-10-20T05:57:09.980Z,22.37
2017-10-20T05:59:37.396Z,21.27
2017-10-20T06:02:04.836Z,21.80
2017-10-20T06:04:32.261Z,22.40
2017-10-20T06:06:59.690Z,21.60
2017-10-20T06:09:27.129Z,20.43
2017-10-20T06:11:54.552Z,21.20
2017-10-20T06:14:21.968Z,22.37
2017-10-20T06:16:49.404Z,20.20
2017-10-20T06:19:16.825Z,20.10
2017-10-20T06:21:44.249Z,20.77
2017-10-20T06:24:11.689Z,19.00
2017-10-20T06:26:39.124Z,21.40
2017-10-20T06:29:06.544Z,19.43
2017-10-20T06:31:33.989Z,21.80
2017-10-20T06:34:01.423Z,20.30
2017-10-20T06:36:28.845Z,20.53
2017-10-20T06:38:56.293Z,21.53
2017-10-20T06:41:23.712Z,21.43
2017-10-20T06:43:51.128Z,20.53
2017-10-20T06:46:18.578Z,21.10
2017-10-20T06:48:46.000Z,21.03
2017-10-20T06:51:13.424Z,20.50
2017-10-20T06:53:40.865Z,21.27
2017-10-20T06:56:08.352Z,20.47
2017-10-20T06:58:35.764Z,20.27
2017-10-20T07:01:03.210Z,19.73
2017-10-20T07:03:30.634Z,20.53
2017-10-20T07:05:58.053Z,20.70
2017-10-20T07:08:25.492Z,19.20
2017-10-20T07:10:52.916Z,20.30
2017-10-20T07:13:20.342Z,20.90
2017-10-20T07:15:47.768Z,20.60
2017-10-20T07:31:37.589Z,20.23
2017-10-20T07:34:05.025Z,20.00
2017-10-20T07:36:32.446Z,21.20
2017-10-20T07:38:59.889Z,20.40
2017-10-20T07:41:27.333Z,22.40
2017-10-20T07:43:54.764Z,20.17
2017-10-20T07:46:22.213Z,20.30
2017-10-20T07:48:49.620Z,20.67
2017-10-20T07:51:17.061Z,22.10
2017-10-20T07:53:44.485Z,20.50
2017-10-20T07:56:11.909Z,20.00
2017-10-20T07:58:39.351Z,18.60
2017-10-20T08:01:06.785Z,19.77
2017-10-20T08:03:34.204Z,19.63
2017-10-20T08:06:01.647Z,18.20
2017-10-20T08:08:29.084Z,19.83
2017-10-20T08:10:56.510Z,20.23
2017-10-20T08:13:23.949Z,19.47
2017-10-20T08:15:51.377Z,19.17
2017-10-20T08:18:18.796Z,21.07
2017-10-20T08:20:46.233Z,17.27
2017-10-20T08:23:13.657Z,21.70
2017-10-20T08:25:41.076Z,19.90
2017-10-20T08:28:08.517Z,19.30
2017-10-20T08:30:35.935Z,21.10
2017-10-20T08:33:03.384Z,21.53
2017-10-20T08:35:30.820Z,21.80
2017-10-20T08:37:58.303Z,19.63
2017-10-20T08:40:25.717Z,19.90
2017-10-20T08:42:53.163Z,20.23
2017-10-20T08:45:20.576Z,22.10
2017-10-20T08:47:48.004Z,19.77
2017-10-20T08:50:15.445Z,19.83
2017-10-20T08:52:42.869Z,21.03
2017-10-20T08:55:10.283Z,20.83
2017-10-20T08:57:37.725Z,22.40
2017-10-20T09:02:39.006Z,20.93
2017-10-20T09:05:06.424Z,22.20
2017-10-20T09:07:33.846Z,17.43
2017-10-20T09:10:01.289Z,20.13
2017-10-20T09:12:28.715Z,21.17
2017-10-20T09:14:56.137Z,19.67
2017-10-20T09:17:23.572Z,18.73
2017-10-20T09:19:50.992Z,13.57
2017-10-20T09:22:18.413Z,15.47
2017-10-20T09:24:45.853Z,20.57
2017-10-20T09:27:13.272Z,15.83
2017-10-20T09:29:40.708Z,12.90
2017-10-20T09:32:08.141Z,15.00
2017-10-20T09:34:35.556Z,13.40
2017-10-20T09:37:03.054Z,15.33
2017-10-20T09:39:30.576Z,16.37
2017-10-20T09:41:57.997Z,12.70
2017-10-20T09:44:25.416Z,13.70
2017-10-20T09:46:52.870Z,12.60
2017-10-20T09:49:20.288Z,10.97
2017-10-20T09:51:47.717Z,11.40
2017-10-20T09:54:15.149Z,11.63
2017-10-20T09:56:42.573Z,11.17
2017-10-20T09:59:09.997Z,10.47
2017-10-20T10:01:37.446Z,10.50
2017-10-20T10:04:04.881Z,10.30
2017-10-20T10:06:32.302Z,11.30
2017-10-20T10:08:59.727Z,9.73
2017-10-20T10:11:27.153Z,10.37
2017-10-20T10:13:54.615Z,11.00
2017-10-20T10:16:22.061Z,11.20
2017-10-20T10:18:49.482Z,11.93
2017-10-20T10:21:16.916Z,13.03
2017-10-20T10:23:44.345Z,12.63
2017-10-20T10:26:11.773Z,14.40
2017-10-20T10:28:39.237Z,13.47
2017-10-20T10:31:06.661Z,13.07
2017-10-20T10:33:34.080Z,13.20
2017-10-20T10:36:01.530Z,12.00
2017-10-20T10:38:28.944Z,12.00
2017-10-20T10:40:56.365Z,13.10
2017-10-20T10:43:23.810Z,11.80
2017-10-20T10:45:51.241Z,12.47
2017-10-20T10:48:18.661Z,9.70
2017-10-20T10:50:46.100Z,9.90
2017-10-20T10:53:13.525Z,9.23
2017-10-20T10:55:41.034Z,9.20
2017-10-20T10:58:08.473Z,9.00
2017-10-20T11:00:35.893Z,9.40
2017-10-20T11:03:03.340Z,8.87
2017-10-20T11:05:42.764Z,9.67
2017-10-20T11:08:21.890Z,9.73
2017-10-20T11:11:01.099Z,8.73
2017-10-20T11:13:28.516Z,11.23
2017-10-20T11:15:55.933Z,9.50
2017-10-20T11:18:23.378Z,9.33
2017-10-20T11:20:50.792Z,10.30
2017-10-20T11:23:18.269Z,10.77
2017-10-20T11:25:45.705Z,10.80
2017-10-20T11:28:13.132Z,8.50
2017-10-20T11:30:40.543Z,9.30
2017-10-20T11:33:07.980Z,8.83
2017-10-20T11:35:35.398Z,9.90
2017-10-20T11:38:02.817Z,9.83
2017-10-20T11:40:30.257Z,9.53
2017-10-20T11:42:57.676Z,10.20
2017-10-20T11:45:25.098Z,9.63
2017-10-20T11:47:52.528Z,9.77
2017-10-20T11:50:19.953Z,10.63
2017-10-20T11:52:47.377Z,10.07
2017-10-20T11:55:14.817Z,9.43
2017-10-20T11:57:42.282Z,10.40
2017-10-20T12:00:09.705Z,10.30
2017-10-20T12:02:37.141Z,9.90
2017-10-20T12:05:04.557Z,10.17
2017-10-20T12:07:31.982Z,10.67
2017-10-20T12:10:00.386Z,10.23
2017-10-20T12:12:27.810Z,10.17
2017-10-20T12:14:55.233Z,10.30
2017-10-20T12:17:22.673Z,10.67
2017-10-20T12:19:50.104Z,10.83
2017-10-20T12:22:17.535Z,10.80
2017-10-20T12:24:44.981Z,10.37
2017-10-20T12:27:12.500Z,10.60
2017-10-20T12:29:39.944Z,10.50
2017-10-20T12:32:07.382Z,11.50
2017-10-20T12:34:34.828Z,9.90
2017-10-20T12:37:02.273Z,11.20
2017-10-20T12:39:29.692Z,11.20
2017-10-20T12:41:57.116Z,10.60
2017-10-20T12:44:24.586Z,11.37
2017-10-20T12:46:52.012Z,11.57
2017-10-20T12:49:19.431Z,10.40
2017-10-20T12:51:46.872Z,11.23
2017-10-20T12:54:14.293Z,10.60
2017-10-20T12:56:41.713Z,11.17
2017-10-20T12:59:09.158Z,11.10
2017-10-20T13:01:36.584Z,10.93
2017-10-20T13:04:04.009Z,10.13
2017-10-20T13:06:31.530Z,11.27
2017-10-20T13:08:58.944Z,10.37
2017-10-20T13:11:26.369Z,10.00
2017-10-20T13:13:53.802Z,9.67
2017-10-20T13:16:21.212Z,9.70
2017-10-20T13:18:48.631Z,10.20
2017-10-20T13:21:16.071Z,10.07
2017-10-20T13:23:43.494Z,10.40
2017-10-20T13:26:10.913Z,9.73
2017-10-20T13:28:38.352Z,10.83
2017-10-20T13:31:05.769Z,9.60
2017-10-20T13:33:33.268Z,10.53
2017-10-20T13:36:00.714Z,11.10
2017-10-20T13:38:28.136Z,10.60
2017-10-20T13:40:55.556Z,10.30
2017-10-20T13:43:22.997Z,10.10
2017-10-20T13:45:50.423Z,10.70
2017-10-20T13:48:17.833Z,9.80
2017-10-20T13:50:45.271Z,11.90
2017-10-20T13:53:12.692Z,11.03
2017-10-20T13:55:40.117Z,11.13
2017-10-20T13:58:07.555Z,11.73
2017-10-20T14:00:34.976Z,11.40
2017-10-20T14:03:02.397Z,11.17
2017-10-20T14:05:29.942Z,10.80
2017-10-20T14:07:57.464Z,12.00
2017-10-20T14:10:24.904Z,12.23
2017-10-20T14:12:52.340Z,12.57
2017-10-20T14:15:19.760Z,10.70
2017-10-20T14:17:47.185Z,10.00
2017-10-20T14:20:14.624Z,10.70
2017-10-20T14:22:42.049Z,10.53
2017-10-20T14:25:09.472Z,11.60
2017-10-20T14:27:36.904Z,9.97
2017-10-20T14:30:04.335Z,11.23
2017-10-20T14:32:31.754Z,10.87
2017-10-20T14:34:59.680Z,10.70
2017-10-20T14:37:27.113Z,11.67
2017-10-20T14:39:54.549Z,11.40
2017-10-20T14:42:21.976Z,10.90
2017-10-20T14:44:49.398Z,9.80
2017-10-20T14:47:16.837Z,11.07
2017-10-20T14:49:44.259Z,10.97
2017-10-20T14:52:11.676Z,10.33
2017-10-20T14:54:39.113Z,10.13
2017-10-20T14:57:06.535Z,11.60
2017-10-20T14:59:33.953Z,10.87
2017-10-20T15:02:01.380Z,13.10
2017-10-20T15:04:28.823Z,10.27
2017-10-20T15:06:56.241Z,10.43
2017-10-20T15:09:23.693Z,12.30
2017-10-20T15:11:51.121Z,11.80
2017-10-20T15:14:18.536Z,11.47
2017-10-20T15:16:45.982Z,11.23
2017-10-20T15:19:13.400Z,11.60
2017-10-20T15:21:40.826Z,11.83
2017-10-20T15:24:08.264Z,11.67
2017-10-20T15:26:35.689Z,11.73
2017-10-20T15:29:03.108Z,11.80
2017-10-20T15:31:30.558Z,12.00
2017-10-20T15:33:57.977Z,13.33
2017-10-20T15:36:25.396Z,12.50
2017-10-20T15:38:52.834Z,12.70
2017-10-20T15:41:20.257Z,12.10
2017-10-20T15:43:47.681Z,12.23
2017-10-20T15:46:15.116Z,12.97
2017-10-20T15:48:42.556Z,12.67
2017-10-20T15:51:09.976Z,13.03
2017-10-20T15:53:37.420Z,14.37
2017-10-20T15:56:04.844Z,12.53
2017-10-20T15:58:32.264Z,10.30
2017-10-20T16:00:59.704Z,12.30
2017-10-20T16:03:27.125Z,10.93
2017-10-20T16:05:54.550Z,9.97
2017-10-20T16:08:21.984Z,10.50
2017-10-20T16:10:49.409Z,11.10
2017-10-20T16:13:16.841Z,10.93
2017-10-20T16:15:44.276Z,11.77
2017-10-20T16:18:11.697Z,10.97
2017-10-20T16:20:39.118Z,11.20
2017-10-20T16:23:06.574Z,10.70
2017-10-20T16:25:33.993Z,11.10
2017-10-20T16:28:01.428Z,10.07
2017-10-20T16:30:28.852Z,9.00
2017-10-20T16:32:56.268Z,8.20
2017-10-20T16:35:23.710Z,7.67
2017-10-20T16:37:51.130Z,8.60
2017-10-20T16:40:18.549Z,9.30
2017-10-20T16:42:45.981Z,9.37
2017-10-20T16:45:13.408Z,8.93
2017-10-20T16:47:40.817Z,9.37
2017-10-20T16:50:08.253Z,9.20
2017-10-20T16:52:35.670Z,8.73
2017-10-20T16:55:03.088Z,8.50
2017-10-20T16:57:30.520Z,9.30
2017-10-20T16:59:57.936Z,9.43
2017-10-20T17:02:25.358Z,9.70
2017-10-20T17:04:52.802Z,11.43
2017-10-20T17:07:20.221Z,10.50
2017-10-20T17:09:47.632Z,9.33
2017-10-20T17:12:15.065Z,9.40
2017-10-20T17:14:42.494Z,9.20
2017-10-20T17:17:09.906Z,9.43
2017-10-20T17:19:37.341Z,9.80
2017-10-20T17:22:04.762Z,8.13
2017-10-20T17:24:32.176Z,9.30
2017-10-20T17:26:59.619Z,10.10
2017-10-20T17:29:27.037Z,9.60
2017-10-20T17:31:54.460Z,10.00
2017-10-20T17:34:21.897Z,9.50
2017-10-20T17:36:49.325Z,9.30
2017-10-20T17:39:16.740Z,8.83
2017-10-20T17:41:44.173Z,9.50
2017-10-20T17:44:11.596Z,9.90
2017-10-20T17:46:39.012Z,9.43
2017-10-20T17:49:06.449Z,8.93
2017-10-20T17:51:33.865Z,9.20
2017-10-20T17:54:01.290Z,10.23
2017-10-20T17:56:28.747Z,9.63
2017-10-20T17:58:56.165Z,10.30
2017-10-20T18:01:23.592Z,9.00
2017-10-20T18:03:51.029Z,9.33
2017-10-20T18:06:18.446Z,9.83
2017-10-20T18:08:45.861Z,9.70
2017-10-20T18:11:13.301Z,9.37
2017-10-20T18:13:40.717Z,9.87
2017-10-20T18:16:08.141Z,10.37
2017-10-20T18:18:35.576Z,9.27
2017-10-20T18:21:02.994Z,9.23
2017-10-20T18:23:30.410Z,8.00
2017-10-20T18:25:57.849Z,9.00
2017-10-20T18:28:25.269Z,9.07
2017-10-20T18:30:52.689Z,9.40
2017-10-20T18:33:20.118Z,8.90
2017-10-20T18:35:47.542Z,9.00
2017-10-20T18:38:14.957Z,8.63
2017-10-20T18:40:42.393Z,8.80
2017-10-20T18:43:09.824Z,9.53
2017-10-20T18:45:37.260Z,9.13
2017-10-20T18:48:04.693Z,10.80
2017-10-20T18:50:32.126Z,8.80
2017-10-20T18:52:59.545Z,8.10
2017-10-20T18:55:26.982Z,8.23
2017-10-20T18:57:54.410Z,8.23
2017-10-20T19:00:21.825Z,6.90
2017-10-20T19:02:49.262Z,9.43
2017-10-20T19:05:16.681Z,8.70
2017-10-20T19:07:44.109Z,9.13
2017-10-20T19:10:11.564Z,9.03
2017-10-20T19:12:39.005Z,8.60
2017-10-20T19:15:06.424Z,8.40
2017-10-20T19:17:33.898Z,8.77
2017-10-20T19:20:01.320Z,9.80
2017-10-20T19:22:28.769Z,9.67
2017-10-20T19:24:56.278Z,9.27
2017-10-20T19:27:23.752Z,8.70
2017-10-20T19:29:51.179Z,8.53
2017-10-20T19:32:18.621Z,9.47
2017-10-20T19:34:46.044Z,9.10
2017-10-20T19:37:13.473Z,9.30
2017-10-20T19:39:40.918Z,9.10
2017-10-20T19:42:08.389Z,9.20
2017-10-20T19:44:36.085Z,10.00
2017-10-20T19:47:03.607Z,9.83
2017-10-20T19:49:31.123Z,10.83
2017-10-20T19:51:58.569Z,10.10
2017-10-20T19:54:25.993Z,11.10
2017-10-20T19:56:53.455Z,10.10
2017-10-20T19:59:20.908Z,10.70
2017-10-20T20:01:48.389Z,10.57
2017-10-20T20:04:15.840Z,10.53
2017-10-20T20:06:43.276Z,11.57
2017-10-20T20:09:10.701Z,10.87
2017-10-20T20:11:38.248Z,9.73
2017-10-20T20:14:05.746Z,10.17
2017-10-20T20:16:33.278Z,10.17
2017-10-20T20:19:00.776Z,10.07
2017-10-20T20:21:28.226Z,10.13
2017-10-20T20:23:55.650Z,9.07
2017-10-20T20:26:23.074Z,10.03
2017-10-20T20:28:50.508Z,9.10
2017-10-20T20:31:18.433Z,10.70
2017-10-20T20:33:46.782Z,9.40
2017-10-20T20:36:14.229Z,9.47
2017-10-20T20:38:41.665Z,10.33
2017-10-20T20:41:09.098Z,10.63
2017-10-20T20:43:36.537Z,10.10
2017-10-20T20:46:03.975Z,10.20
2017-10-20T20:48:31.416Z,10.10
2017-10-20T20:50:58.857Z,9.77
2017-10-20T20:53:26.282Z,10.30
2017-10-20T20:55:53.705Z,18.83
2017-10-20T20:58:21.139Z,12.00
2017-10-20T21:00:48.577Z,13.83
2017-10-20T21:03:16.016Z,13.53
2017-10-20T21:05:43.473Z,11.50
2017-10-20T21:08:10.888Z,11.23
2017-10-20T21:10:38.333Z,11.47
2017-10-20T21:13:05.769Z,11.00
2017-10-20T21:15:33.205Z,11.20
2017-10-20T21:18:00.641Z,10.33
2017-10-20T21:20:28.073Z,10.03
2017-10-20T21:22:55.517Z,11.43
2017-10-20T21:25:23.567Z,11.30
2017-10-20T21:27:50.989Z,11.23
2017-10-20T21:30:18.429Z,11.50
2017-10-20T21:32:46.360Z,12.10
2017-10-20T21:35:13.789Z,12.03
2017-10-20T21:37:41.229Z,10.10
2017-10-20T21:40:08.666Z,10.80
2017-10-20T21:42:36.094Z,11.67
2017-10-20T21:45:03.528Z,10.23
2017-10-20T21:47:30.948Z,11.60
2017-10-20T21:49:58.373Z,10.80
2017-10-20T21:52:25.814Z,11.27
2017-10-20T21:54:53.241Z,10.87
2017-10-20T21:57:20.660Z,11.87
2017-10-20T21:59:48.095Z,12.70
2017-10-20T22:02:15.533Z,11.53
2017-10-20T22:04:42.957Z,11.73
2017-10-20T22:07:10.405Z,11.20
2017-10-20T22:09:37.829Z,12.37
2017-10-20T22:12:05.264Z,12.20
2017-10-20T22:14:32.706Z,11.27
2017-10-20T22:17:00.133Z,12.30
2017-10-20T22:19:27.554Z,11.33
2017-10-20T22:21:54.992Z,12.50
2017-10-20T22:24:22.416Z,12.60
2017-10-20T22:26:49.844Z,11.47
2017-10-20T22:29:17.276Z,12.40
2017-10-20T22:31:44.700Z,12.93
2017-10-20T22:34:12.128Z,12.93
2017-10-20T22:36:39.569Z,13.20
2017-10-20T22:39:06.985Z,13.80
2017-10-20T22:41:34.406Z,13.40
2017-10-20T22:44:01.840Z,12.87
2017-10-20T22:46:29.268Z,12.57
2017-10-20T22:48:56.689Z,11.93
2017-10-20T22:51:24.139Z,13.63
2017-10-20T22:53:51.567Z,12.77
2017-10-20T22:56:18.988Z,13.30
2017-10-20T22:58:46.450Z,13.30
2017-10-20T23:01:13.870Z,11.97
2017-10-20T23:03:41.299Z,12.07
2017-10-20T23:06:08.737Z,11.97
2017-10-20T23:08:36.157Z,10.97
2017-10-20T23:11:03.581Z,11.30
2017-10-20T23:13:31.026Z,11.33
2017-10-20T23:15:58.449Z,11.80
2017-10-20T23:18:25.870Z,11.30
2017-10-20T23:20:53.313Z,12.37
2017-10-20T23:23:20.738Z,10.90
2017-10-20T23:25:48.157Z,10.93
2017-10-20T23:28:15.598Z,10.93
2017-10-20T23:30:43.025Z,10.83
2017-10-20T23:33:10.449Z,11.30
2017-10-20T23:35:37.890Z,11.33
2017-10-20T23:38:05.320Z,11.23
2017-10-20T23:40:32.753Z,11.37
2017-10-20T23:43:00.192Z,11.87
2017-10-20T23:45:27.617Z,11.93
2017-10-20T23:47:55.041Z,11.40
2017-10-20T23:50:22.482Z,11.83
2017-10-20T23:52:49.901Z,11.80
2017-10-20T23:55:17.332Z,10.93
2017-10-20T23:57:44.775Z,12.30
